createdAt,value
2022-08-26T00:01:38.795Z,21.65
2022-08-26T00:04:06.103Z,25.73
2022-08-26T00:06:33.518Z,29.45
2022-08-26T00:09:00.769Z,23.90
2022-08-26T00:11:27.953Z,22.40
2022-08-26T00:13:57.092Z,25.42
2022-08-26T00:16:27.284Z,22.92
2022-08-26T00:18:54.967Z,27.08
2022-08-26T00:21:22.370Z,23.30
2022-08-26T00:23:50.436Z,18.90
2022-08-26T00:26:17.201Z,24.20
2022-08-26T00:28:44.660Z,31.35
2022-08-26T00:31:11.677Z,23.52
2022-08-26T00:33:39.981Z,25.25
2022-08-26T00:36:07.548Z,32.17
2022-08-26T00:38:37.929Z,29.27
2022-08-26T00:41:06.369Z,24.60
2022-08-26T00:43:46.152Z,22.63
2022-08-26T00:46:21.849Z,21.50
2022-08-26T00:48:54.481Z,25.35
2022-08-26T00:51:24.923Z,21.40
2022-08-26T00:54:10.810Z,19.88
2022-08-26T00:59:11.953Z,25.17
2022-08-26T01:01:42.014Z,30.63
2022-08-26T01:04:10.227Z,25.17
2022-08-26T01:06:39.386Z,28.25
2022-08-26T01:09:06.523Z,23.20
2022-08-26T01:11:34.189Z,21.25
2022-08-26T01:14:04.937Z,28.17
2022-08-26T01:16:33.415Z,26.50
2022-08-26T01:19:10.313Z,27.98
2022-08-26T01:21:59.910Z,25.30
2022-08-26T01:24:29.342Z,21.83
2022-08-26T01:27:01.679Z,23.70
2022-08-26T01:29:30.386Z,27.45
2022-08-26T01:31:57.913Z,26.75
2022-08-26T01:34:32.836Z,28.95
2022-08-26T01:37:05.818Z,26.77
2022-08-26T01:39:35.574Z,22.23
2022-08-26T01:42:04.345Z,28.60
2022-08-26T01:45:10.155Z,35.80
2022-08-26T01:47:38.738Z,23.77
2022-08-26T01:50:27.457Z,32.55
2022-08-26T01:52:57.064Z,22.73
2022-08-26T01:55:29.290Z,28.25
2022-08-26T01:58:04.696Z,26.25
2022-08-26T02:00:34.324Z,38.15
2022-08-26T02:03:18.014Z,30.83
2022-08-26T02:05:51.401Z,28.95
2022-08-26T02:08:24.751Z,34.28
2022-08-26T02:10:54.846Z,31.42
2022-08-26T02:13:23.417Z,28.30
2022-08-26T02:15:52.318Z,29.67
2022-08-26T02:18:19.552Z,19.95
2022-08-26T02:20:46.345Z,25.05
2022-08-26T02:23:13.325Z,33.67
2022-08-26T02:26:04.467Z,33.25
2022-08-26T02:28:36.193Z,35.63
2022-08-26T02:31:03.594Z,25.40
2022-08-26T02:33:31.725Z,33.05
2022-08-26T02:35:58.689Z,40.13
2022-08-26T02:38:26.186Z,28.20
2022-08-26T02:40:52.862Z,31.48
2022-08-26T02:43:19.616Z,30.33
2022-08-26T02:46:00.806Z,29.48
2022-08-26T02:48:28.869Z,30.50
2022-08-26T02:50:55.604Z,24.90
2022-08-26T02:53:25.482Z,33.03
2022-08-26T02:55:52.531Z,47.25
2022-08-26T02:58:19.450Z,42.47
2022-08-26T03:00:52.814Z,36.35
2022-08-26T03:03:22.518Z,31.80
2022-08-26T03:05:50.893Z,29.35
2022-08-26T03:08:17.878Z,27.35
2022-08-26T03:10:44.593Z,24.45
2022-08-26T03:13:11.573Z,44.97
2022-08-26T03:15:39.192Z,37.58
2022-08-26T03:18:06.722Z,36.92
2022-08-26T03:20:34.456Z,27.35
2022-08-26T03:23:01.391Z,35.45
2022-08-26T03:25:28.801Z,34.90
2022-08-26T03:27:55.714Z,29.35
2022-08-26T03:30:44.613Z,37.33
2022-08-26T03:33:14.105Z,42.45
2022-08-26T03:35:43.584Z,34.33
2022-08-26T03:38:11.182Z,33.28
2022-08-26T03:40:39.050Z,29.17
2022-08-26T03:43:09.873Z,30.40
2022-08-26T03:45:37.122Z,34.47
2022-08-26T03:48:04.699Z,31.13
2022-08-26T03:50:34.322Z,28.15
2022-08-26T03:53:04.051Z,30.15
2022-08-26T03:55:32.498Z,28.52
2022-08-26T03:58:00.804Z,32.30
2022-08-26T04:00:27.825Z,29.17
2022-08-26T04:02:54.877Z,28.70
2022-08-26T04:05:22.842Z,32.08
2022-08-26T04:07:50.483Z,24.85
2022-08-26T04:10:19.443Z,28.42
2022-08-26T04:12:47.804Z,26.25
2022-08-26T04:15:16.044Z,25.40
2022-08-26T04:17:44.888Z,29.67
2022-08-26T04:20:16.216Z,27.90
2022-08-26T04:22:43.176Z,26.50
2022-08-26T04:25:11.410Z,42.85
2022-08-26T04:27:38.684Z,27.17
2022-08-26T04:30:08.926Z,37.53
2022-08-26T04:32:36.494Z,29.85
2022-08-26T04:35:03.614Z,30.23
2022-08-26T04:37:31.980Z,35.05
2022-08-26T04:39:59.892Z,38.30
2022-08-26T04:42:27.759Z,39.67
2022-08-26T04:44:55.705Z,46.58
2022-08-26T04:47:22.342Z,29.65
2022-08-26T04:49:48.997Z,50.45
2022-08-26T04:52:17.145Z,33.50
2022-08-26T04:54:43.893Z,27.08
2022-08-26T04:57:11.106Z,40.45
2022-08-26T04:59:39.482Z,43.20
2022-08-26T05:02:07.289Z,45.53
2022-08-26T05:04:34.639Z,32.88
2022-08-26T05:07:02.716Z,44.55
2022-08-26T05:09:29.808Z,40.03
2022-08-26T05:11:57.468Z,42.50
2022-08-26T05:14:24.483Z,41.38
2022-08-26T05:16:52.162Z,39.35
2022-08-26T05:19:19.579Z,38.78
2022-08-26T05:21:48.770Z,40.47
2022-08-26T05:24:16.780Z,36.20
2022-08-26T05:26:44.864Z,27.02
2022-08-26T05:29:12.049Z,38.13
2022-08-26T05:31:38.869Z,35.95
2022-08-26T05:34:06.383Z,45.78
2022-08-26T05:36:35.469Z,38.45
2022-08-26T05:39:04.710Z,38.00
2022-08-26T05:41:36.397Z,34.60
2022-08-26T05:44:06.238Z,44.60
2022-08-26T05:46:34.708Z,48.60
2022-08-26T05:49:03.024Z,42.00
2022-08-26T05:51:30.977Z,37.47
2022-08-26T05:53:58.774Z,39.00
2022-08-26T05:56:27.631Z,32.47
2022-08-26T05:58:56.515Z,41.55
2022-08-26T06:01:28.200Z,36.70
2022-08-26T06:03:59.715Z,43.22
2022-08-26T06:06:31.956Z,63.30
2022-08-26T06:09:00.148Z,37.13
2022-08-26T06:11:29.129Z,30.67
2022-08-26T06:14:03.106Z,38.50
2022-08-26T06:16:32.597Z,42.53
2022-08-26T06:19:03.147Z,36.80
2022-08-26T06:21:35.757Z,34.42
2022-08-26T06:24:45.771Z,36.10
2022-08-26T06:27:15.202Z,33.60
2022-08-26T06:29:42.646Z,36.72
2022-08-26T06:32:09.328Z,34.38
2022-08-26T06:34:36.315Z,34.20
2022-08-26T06:37:03.485Z,39.92
2022-08-26T06:39:31.613Z,29.58
2022-08-26T06:42:03.020Z,41.20
2022-08-26T06:46:56.649Z,41.95
2022-08-26T06:49:26.542Z,37.67
2022-08-26T06:51:55.286Z,33.93
2022-08-26T06:54:22.479Z,37.10
2022-08-26T06:56:49.586Z,43.10
2022-08-26T06:59:16.570Z,30.60
2022-08-26T07:01:45.194Z,37.92
2022-08-26T07:04:15.648Z,36.05
2022-08-26T07:06:47.284Z,32.97
2022-08-26T07:11:41.349Z,28.17
2022-08-26T07:14:09.094Z,32.67
2022-08-26T07:16:35.945Z,34.45
2022-08-26T07:19:03.633Z,35.72
2022-08-26T07:21:40.440Z,26.90
2022-08-26T07:24:08.620Z,32.42
2022-08-26T07:26:37.804Z,31.23
2022-08-26T07:29:04.789Z,42.83
2022-08-26T07:31:39.469Z,48.38
2022-08-26T07:34:10.834Z,41.92
2022-08-26T07:36:37.750Z,40.35
2022-08-26T07:39:05.501Z,40.65
2022-08-26T07:41:32.300Z,38.90
2022-08-26T07:43:59.414Z,25.83
2022-08-26T07:46:30.081Z,46.25
2022-08-26T07:48:58.135Z,33.95
2022-08-26T07:51:25.598Z,45.67
2022-08-26T07:53:53.359Z,43.47
2022-08-26T07:56:23.403Z,32.08
2022-08-26T07:58:53.840Z,39.38
2022-08-26T08:01:23.861Z,37.77
2022-08-26T08:03:51.828Z,44.03
2022-08-26T08:06:21.318Z,38.63
2022-08-26T08:08:50.742Z,35.92
2022-08-26T08:11:22.257Z,32.83
2022-08-26T08:13:55.934Z,26.50
2022-08-26T08:16:26.984Z,38.20
2022-08-26T08:18:56.560Z,58.80
2022-08-26T08:21:25.366Z,49.97
2022-08-26T08:23:54.557Z,33.10
2022-08-26T08:26:22.020Z,39.80
2022-08-26T08:28:49.480Z,40.00
2022-08-26T08:31:54.334Z,41.67
2022-08-26T08:34:11.342Z,27.73
2022-08-26T08:36:38.499Z,36.42
2022-08-26T08:39:06.368Z,33.17
2022-08-26T08:42:27.006Z,49.08
2022-08-26T08:44:58.878Z,34.45
2022-08-26T08:47:59.362Z,35.33
2022-08-26T08:50:35.702Z,30.88
2022-08-26T08:53:09.985Z,33.35
2022-08-26T08:55:48.132Z,26.30
2022-08-26T08:58:22.546Z,42.50
2022-08-26T09:01:02.553Z,39.97
2022-08-26T09:03:42.514Z,41.53
2022-08-26T09:06:17.289Z,29.98
2022-08-26T09:08:47.022Z,33.40
2022-08-26T09:11:17.721Z,30.33
2022-08-26T09:13:49.122Z,42.10
2022-08-26T09:16:25.489Z,37.90
2022-08-26T09:19:30.082Z,38.92
2022-08-26T09:21:59.270Z,31.25
2022-08-26T09:24:28.624Z,32.97
2022-08-26T09:26:57.829Z,31.42
2022-08-26T09:29:28.637Z,34.05
2022-08-26T09:32:21.330Z,38.40
2022-08-26T09:35:11.320Z,29.38
2022-08-26T09:40:34.858Z,44.90
2022-08-26T09:43:23.099Z,56.22
2022-08-26T09:45:59.557Z,50.83
2022-08-26T09:48:37.790Z,37.38
2022-08-26T09:51:28.267Z,38.22
2022-08-26T09:54:00.841Z,44.08
2022-08-26T09:56:39.983Z,49.45
2022-08-26T09:59:11.153Z,56.30
2022-08-26T10:01:43.950Z,44.35
2022-08-26T10:04:15.156Z,37.72
2022-08-26T10:06:54.901Z,44.28
2022-08-26T10:09:23.965Z,53.38
2022-08-26T10:11:55.360Z,51.03
2022-08-26T10:14:28.113Z,42.67
2022-08-26T10:17:21.847Z,43.78
2022-08-26T10:19:57.847Z,52.05
2022-08-26T10:22:39.747Z,36.30
2022-08-26T10:25:11.989Z,43.30
2022-08-26T10:28:18.108Z,42.17
2022-08-26T10:30:51.252Z,40.70
2022-08-26T10:33:18.957Z,43.03
2022-08-26T10:35:58.558Z,26.70
2022-08-26T10:38:32.364Z,38.15
2022-08-26T10:41:16.784Z,41.38
2022-08-26T10:43:53.754Z,39.70
2022-08-26T10:46:27.280Z,42.35
2022-08-26T10:48:54.295Z,48.70
2022-08-26T10:51:27.147Z,33.85
2022-08-26T10:54:22.000Z,45.38
2022-08-26T10:56:53.589Z,34.85
2022-08-26T10:59:50.493Z,37.83
2022-08-26T11:02:31.484Z,39.83
2022-08-26T11:05:05.660Z,38.22
2022-08-26T11:07:47.414Z,38.83
2022-08-26T11:10:19.276Z,36.67
2022-08-26T11:12:49.499Z,42.53
2022-08-26T11:15:26.490Z,47.17
2022-08-26T11:17:53.255Z,48.45
2022-08-26T11:20:23.822Z,46.97
2022-08-26T11:22:51.960Z,41.80
2022-08-26T11:25:19.797Z,44.05
2022-08-26T11:27:52.462Z,65.65
2022-08-26T11:30:20.267Z,57.08
2022-08-26T11:32:57.354Z,60.13
2022-08-26T11:35:24.656Z,52.42
2022-08-26T11:37:55.607Z,60.50
2022-08-26T11:40:32.360Z,36.38
2022-08-26T11:43:09.016Z,41.67
2022-08-26T11:45:47.651Z,48.00
2022-08-26T11:48:31.018Z,28.15
2022-08-26T11:50:59.095Z,32.05
2022-08-26T11:53:27.697Z,25.98
2022-08-26T11:55:59.505Z,29.95
2022-08-26T11:58:28.464Z,15.82
2022-08-26T12:01:09.908Z,16.48
2022-08-26T12:03:50.765Z,14.32
2022-08-26T12:06:29.607Z,13.25
2022-08-26T12:09:01.495Z,13.07
2022-08-26T12:11:35.156Z,13.20
2022-08-26T12:14:08.222Z,11.27
2022-08-26T12:16:39.405Z,10.95
2022-08-26T12:19:26.354Z,17.60
2022-08-26T12:22:00.516Z,13.90
2022-08-26T12:24:27.695Z,10.05
2022-08-26T12:27:31.333Z,7.80
2022-08-26T12:30:08.410Z,9.90
2022-08-26T12:32:39.123Z,8.52
2022-08-26T12:35:23.992Z,7.50
2022-08-26T12:37:54.084Z,11.57
2022-08-26T12:40:43.274Z,13.45
2022-08-26T12:43:11.901Z,16.90
2022-08-26T12:46:02.258Z,12.20
2022-08-26T12:48:35.328Z,17.83
2022-08-26T12:51:04.021Z,11.88
2022-08-26T12:53:33.549Z,13.07
2022-08-26T12:56:06.197Z,20.65
2022-08-26T12:58:36.020Z,18.33
2022-08-26T13:01:09.018Z,12.45
2022-08-26T13:03:43.582Z,11.13
2022-08-26T13:06:22.902Z,18.85
2022-08-26T13:09:06.982Z,16.58
2022-08-26T13:12:02.241Z,13.98
2022-08-26T13:14:33.182Z,16.58
2022-08-26T13:17:03.306Z,8.37
2022-08-26T13:19:33.128Z,15.75
2022-08-26T13:22:06.265Z,9.82
2022-08-26T13:24:36.736Z,10.57
2022-08-26T13:27:12.043Z,16.13
2022-08-26T13:29:39.422Z,14.63
2022-08-26T13:32:08.238Z,11.45
2022-08-26T13:34:40.338Z,11.25
2022-08-26T13:37:11.636Z,13.93
2022-08-26T13:39:42.389Z,24.83
2022-08-26T13:42:09.824Z,33.37
2022-08-26T13:44:41.213Z,27.40
2022-08-26T13:47:15.994Z,21.40
2022-08-26T13:49:49.389Z,20.73
2022-08-26T13:52:30.168Z,17.00
2022-08-26T13:55:04.109Z,20.70
2022-08-26T13:57:32.766Z,21.42
2022-08-26T14:00:00.010Z,22.20
2022-08-26T14:02:33.048Z,21.35
2022-08-26T14:05:00.027Z,21.83
2022-08-26T14:07:38.272Z,25.73
2022-08-26T14:10:08.359Z,19.80
2022-08-26T14:12:35.422Z,36.80
2022-08-26T14:15:05.617Z,35.25
2022-08-26T14:17:34.961Z,35.35
2022-08-26T14:20:02.535Z,29.83
2022-08-26T14:22:32.328Z,21.05
2022-08-26T14:25:00.891Z,35.08
2022-08-26T14:27:30.623Z,29.58
2022-08-26T14:29:57.482Z,34.15
2022-08-26T14:32:31.645Z,26.92
2022-08-26T14:34:58.552Z,25.88
2022-08-26T14:37:27.975Z,21.15
2022-08-26T14:39:56.303Z,25.20
2022-08-26T14:42:31.420Z,21.98
2022-08-26T14:45:02.171Z,24.63
2022-08-26T14:47:29.159Z,25.25
2022-08-26T14:49:55.834Z,17.75
2022-08-26T14:52:22.589Z,17.23
2022-08-26T14:54:49.259Z,15.80
2022-08-26T14:57:21.697Z,16.23
2022-08-26T14:59:50.461Z,14.93
2022-08-26T15:02:32.751Z,13.10
2022-08-26T15:05:02.119Z,14.90
2022-08-26T15:07:28.780Z,18.40
2022-08-26T15:09:55.399Z,13.23
2022-08-26T15:12:22.691Z,10.98
2022-08-26T15:14:49.332Z,9.82
2022-08-26T15:17:16.004Z,15.60
2022-08-26T15:19:42.644Z,11.15
2022-08-26T15:22:09.306Z,13.38
2022-08-26T15:24:36.376Z,13.13
2022-08-26T15:27:03.068Z,13.85
2022-08-26T15:29:29.890Z,13.68
2022-08-26T15:31:58.241Z,8.45
2022-08-26T15:34:25.042Z,15.80
2022-08-26T15:36:51.685Z,8.70
2022-08-26T15:39:19.472Z,11.60
2022-08-26T15:41:46.810Z,8.75
2022-08-26T15:44:14.321Z,10.00
2022-08-26T15:46:41.300Z,20.02
2022-08-26T15:49:08.208Z,10.07
2022-08-26T15:51:45.763Z,15.80
2022-08-26T15:54:14.002Z,9.40
2022-08-26T15:56:40.745Z,11.05
2022-08-26T15:59:08.115Z,9.82
2022-08-26T16:01:35.792Z,13.05
2022-08-26T16:04:03.430Z,13.77
2022-08-26T16:06:33.275Z,15.90
2022-08-26T16:09:00.235Z,13.52
2022-08-26T16:11:28.049Z,16.90
2022-08-26T16:13:55.385Z,13.02
2022-08-26T16:16:22.392Z,13.25
2022-08-26T16:18:49.642Z,17.10
2022-08-26T16:21:23.167Z,16.13
2022-08-26T16:23:50.408Z,22.80
2022-08-26T16:26:26.019Z,18.67
2022-08-26T16:28:53.750Z,13.20
2022-08-26T16:31:21.595Z,19.33
2022-08-26T16:33:48.691Z,16.40
2022-08-26T16:36:16.331Z,18.65
2022-08-26T16:38:50.087Z,18.83
2022-08-26T16:41:17.700Z,21.65
2022-08-26T16:43:44.539Z,18.15
2022-08-26T16:46:14.095Z,19.90
2022-08-26T16:48:40.904Z,20.50
2022-08-26T16:51:13.673Z,17.75
2022-08-26T16:53:40.329Z,19.23
2022-08-26T16:56:07.304Z,18.92
2022-08-26T16:58:34.120Z,21.35
2022-08-26T17:01:01.277Z,23.50
2022-08-26T17:03:28.037Z,26.63
2022-08-26T17:05:54.682Z,22.92
2022-08-26T17:08:24.256Z,23.90
2022-08-26T17:10:55.745Z,23.52
2022-08-26T17:13:25.986Z,22.13
2022-08-26T17:16:04.210Z,26.60
2022-08-26T17:18:31.596Z,24.55
2022-08-26T17:21:02.672Z,27.35
2022-08-26T17:23:29.457Z,26.83
2022-08-26T17:25:56.086Z,24.42
2022-08-26T17:28:22.911Z,26.88
2022-08-26T17:30:49.650Z,22.60
2022-08-26T17:33:17.161Z,21.85
2022-08-26T17:35:48.872Z,19.45
2022-08-26T17:38:15.507Z,20.05
2022-08-26T17:40:42.177Z,21.13
2022-08-26T17:43:12.232Z,24.48
2022-08-26T17:45:40.530Z,28.88
2022-08-26T17:48:08.145Z,25.42
2022-08-26T17:50:35.364Z,22.65
2022-08-26T17:53:02.054Z,32.10
2022-08-26T17:55:29.213Z,23.67
2022-08-26T17:57:55.888Z,26.30
2022-08-26T18:00:26.478Z,32.00
2022-08-26T18:02:54.880Z,28.05
2022-08-26T18:05:22.329Z,26.42
2022-08-26T18:07:49.035Z,29.92
2022-08-26T18:10:18.475Z,35.60
2022-08-26T18:12:45.667Z,25.95
2022-08-26T18:15:14.463Z,30.33
2022-08-26T18:17:41.849Z,36.10
2022-08-26T18:20:11.573Z,32.88
2022-08-26T18:22:38.276Z,30.02
2022-08-26T18:25:07.737Z,32.33
2022-08-26T18:27:36.174Z,35.75
2022-08-26T18:30:06.633Z,29.90
2022-08-26T18:32:33.284Z,33.30
2022-08-26T18:34:59.980Z,32.58
2022-08-26T18:37:29.477Z,37.65
2022-08-26T18:39:59.591Z,36.50
2022-08-26T18:42:27.275Z,44.35
2022-08-26T18:44:53.964Z,27.65
2022-08-26T18:47:20.875Z,34.25
2022-08-26T18:49:48.610Z,46.60
2022-08-26T18:52:15.538Z,39.20
2022-08-26T18:54:42.411Z,42.03
2022-08-26T18:57:09.255Z,37.25
2022-08-26T18:59:35.916Z,42.45
2022-08-26T19:02:02.749Z,40.75
2022-08-26T19:04:29.650Z,39.10
2022-08-26T19:06:56.888Z,38.42
2022-08-26T19:09:26.316Z,33.28
2022-08-26T19:11:53.827Z,29.35
2022-08-26T19:14:20.540Z,40.92
2022-08-26T19:16:49.086Z,31.65
2022-08-26T19:19:16.233Z,43.05
2022-08-26T19:21:43.287Z,39.65
2022-08-26T19:24:15.459Z,38.50
2022-08-26T19:26:44.397Z,41.00
2022-08-26T19:29:11.844Z,32.35
2022-08-26T19:31:38.485Z,38.30
2022-08-26T19:34:05.852Z,44.88
2022-08-26T19:36:33.112Z,31.20
2022-08-26T19:39:03.017Z,38.95
2022-08-26T19:41:37.408Z,36.90
2022-08-26T19:44:34.803Z,42.63
2022-08-26T19:47:03.579Z,35.45
2022-08-26T19:49:31.028Z,34.47
2022-08-26T19:51:58.133Z,39.88
2022-08-26T19:54:25.554Z,37.38
2022-08-26T19:56:52.228Z,34.03
2022-08-26T19:59:18.933Z,30.73
2022-08-26T20:01:45.624Z,32.00
2022-08-26T20:04:12.532Z,34.05
2022-08-26T20:06:39.804Z,38.90
2022-08-26T20:09:06.765Z,43.85
2022-08-26T20:11:33.516Z,34.58
2022-08-26T20:14:00.473Z,31.63
2022-08-26T20:16:27.202Z,33.40
2022-08-26T20:19:29.256Z,33.38
2022-08-26T20:21:55.923Z,36.95
2022-08-26T20:24:27.260Z,35.38
2022-08-26T20:26:54.181Z,38.13
2022-08-26T20:29:21.611Z,41.28
2022-08-26T20:31:49.215Z,35.40
2022-08-26T20:34:18.686Z,37.65
2022-08-26T20:36:47.563Z,36.58
2022-08-26T20:39:15.269Z,35.22
2022-08-26T20:41:43.966Z,40.47
2022-08-26T20:44:10.623Z,48.88
2022-08-26T20:46:37.580Z,36.30
2022-08-26T20:49:05.900Z,42.40
2022-08-26T20:51:35.307Z,35.95
2022-08-26T20:54:02.124Z,46.83
2022-08-26T20:56:28.822Z,37.40
2022-08-26T20:58:58.771Z,36.30
2022-08-26T21:01:30.568Z,46.72
2022-08-26T21:03:57.701Z,33.50
2022-08-26T21:06:24.960Z,32.15
2022-08-26T21:08:51.882Z,34.88
2022-08-26T21:11:19.830Z,30.63
2022-08-26T21:16:36.229Z,23.70
2022-08-26T21:19:08.139Z,33.22
2022-08-26T21:21:35.424Z,34.80
2022-08-26T21:24:03.114Z,27.67
2022-08-26T21:26:30.266Z,35.10
2022-08-26T21:28:57.002Z,33.97
2022-08-26T21:31:25.300Z,30.60
2022-08-26T21:33:52.776Z,33.33
2022-08-26T21:36:20.399Z,33.85
2022-08-26T21:38:47.290Z,37.00
2022-08-26T21:41:24.426Z,35.90
2022-08-26T21:43:55.310Z,33.03
2022-08-26T21:46:23.852Z,36.37
2022-08-26T21:49:02.745Z,31.50
2022-08-26T21:51:32.919Z,40.25
2022-08-26T21:54:01.456Z,37.08
2022-08-26T21:56:31.658Z,45.75
2022-08-26T21:58:59.733Z,33.08
2022-08-26T22:01:32.648Z,36.50
2022-08-26T22:03:59.472Z,40.42
2022-08-26T22:06:27.863Z,39.20
2022-08-26T22:08:55.338Z,38.03
2022-08-26T22:11:22.947Z,37.20
2022-08-26T22:13:50.846Z,33.15
2022-08-26T22:16:19.254Z,31.45
2022-08-26T22:18:46.375Z,34.25
2022-08-26T22:21:19.809Z,31.17
2022-08-26T22:23:47.116Z,36.45
2022-08-26T22:26:25.387Z,37.75
2022-08-26T22:28:55.578Z,34.78
2022-08-26T22:31:28.161Z,29.13
2022-08-26T22:34:06.472Z,30.63
2022-08-26T22:36:35.030Z,36.38
2022-08-26T22:39:04.843Z,31.48
2022-08-26T22:41:32.622Z,36.03
2022-08-26T22:44:02.769Z,34.22
2022-08-26T22:46:30.130Z,32.75
2022-08-26T22:48:56.904Z,45.15
2022-08-26T22:51:23.704Z,34.20
2022-08-26T22:53:50.481Z,36.13
2022-08-26T22:56:19.167Z,29.90
2022-08-26T22:58:46.089Z,26.77
2022-08-26T23:01:13.461Z,26.92
2022-08-26T23:03:40.338Z,24.95
2022-08-26T23:06:10.216Z,24.80
2022-08-26T23:08:38.603Z,29.33
2022-08-26T23:11:10.350Z,22.45
2022-08-26T23:13:38.054Z,28.10
2022-08-26T23:16:09.384Z,32.22
2022-08-26T23:18:36.758Z,29.52
2022-08-26T23:21:03.760Z,37.95
2022-08-26T23:23:31.192Z,39.53
2022-08-26T23:25:58.450Z,40.60
2022-08-26T23:28:26.509Z,38.70
2022-08-26T23:30:53.972Z,43.05
2022-08-26T23:33:20.983Z,48.17
2022-08-26T23:35:47.728Z,47.25
2022-08-26T23:38:15.011Z,52.05
2022-08-26T23:40:42.019Z,51.80
2022-08-26T23:43:14.414Z,41.60
2022-08-26T23:45:41.227Z,47.80
2022-08-26T23:48:08.022Z,50.58
2022-08-26T23:50:53.419Z,45.67
2022-08-26T23:53:22.500Z,42.08
2022-08-26T23:55:52.035Z,39.22
2022-08-26T23:58:20.439Z,39.35
